San Diego, California
Traffic Map
Current Weather Conditions
San Diego, California
Clear
Clear
62°
Feels Like: 62°
Wind Chill: 62° Ceiling: Unl
Heat Index: 62° Visibility: 10mi
Dew Point: 26° Wind: 0mph
Humidity: 25% Direction: ° ()
Pressure: 30.11in Gusts: 0mph
Raw Report DataKSAN 080551Z 00000KT 10SM CLR 17/M03 A3011 RMK AO2 SLP195 T01671033 10250 20167 51007
Traffic Incident Summary
Active as of:
Severity:
Category:
InformationThere was an issue retrieving the traffic information for this location. Please try a different location or try again shortly.
Advertisements
Track Severe Weather on mobile